createdAt,value
2017-05-03T00:00:17.081Z,-3.39
2017-05-03T00:01:16.762Z,-3.39
2017-05-03T00:02:16.744Z,-3.39
2017-05-03T00:03:17.025Z,-3.54
2017-05-03T00:04:17.014Z,-3.59
2017-05-03T00:05:16.706Z,-3.62
2017-05-03T00:06:16.973Z,-3.62
2017-05-03T00:07:16.959Z,-3.65
2017-05-03T00:08:16.640Z,-3.7
2017-05-03T00:09:16.621Z,-3.81
2017-05-03T00:10:16.901Z,-3.77
2017-05-03T00:11:16.888Z,-3.62
2017-05-03T00:12:16.873Z,-3.58
2017-05-03T00:13:16.562Z,-3.51
2017-05-03T00:14:16.541Z,-3.54
2017-05-03T00:15:16.525Z,-3.36
2017-05-03T00:16:16.494Z,-3.34
2017-05-03T00:17:16.487Z,-3.46
2017-05-03T00:18:16.475Z,-3.51
2017-05-03T00:19:16.456Z,-3.54
2017-05-03T00:20:16.728Z,-3.54
2017-05-03T00:21:16.721Z,-3.55
2017-05-03T00:22:16.392Z,-3.65
2017-05-03T00:23:16.106Z,-3.61
2017-05-03T00:24:16.663Z,-3.49
2017-05-03T00:25:16.337Z,-3.36
2017-05-03T00:26:16.624Z,-3.3
2017-05-03T00:27:16.608Z,-3.21
2017-05-03T00:28:16.285Z,-3.33
2017-05-03T00:29:16.267Z,-3.46
2017-05-03T00:30:16.246Z,-3.57
2017-05-03T00:31:16.233Z,-3.62
2017-05-03T00:32:16.214Z,-3.76
2017-05-03T00:33:16.198Z,-3.72
2017-05-03T00:34:16.180Z,-3.64
2017-05-03T00:35:16.165Z,-3.58
2017-05-03T00:36:16.144Z,-3.57
2017-05-03T00:37:16.122Z,-3.57
2017-05-03T00:38:16.409Z,-3.49
2017-05-03T00:39:16.409Z,-3.4
2017-05-03T00:40:16.069Z,-3.3
2017-05-03T00:41:16.354Z,-3.23
2017-05-03T00:42:16.037Z,-3.1
2017-05-03T00:43:16.320Z,-3
2017-05-03T00:44:16.001Z,-3.1
2017-05-03T00:45:15.680Z,-3.12
2017-05-03T00:46:15.968Z,-3.16
2017-05-03T00:47:15.949Z,-3.08
2017-05-03T00:48:15.937Z,-3.13
2017-05-03T00:49:15.914Z,-3.33
2017-05-03T00:50:15.901Z,-3.44
2017-05-03T00:51:15.576Z,-3.57
2017-05-03T00:52:15.867Z,-3.69
2017-05-03T00:53:15.849Z,-3.65
2017-05-03T00:54:15.831Z,-3.54
2017-05-03T00:55:15.812Z,-3.49
2017-05-03T00:56:15.803Z,-3.46
2017-05-03T00:57:15.775Z,-3.57
2017-05-03T00:58:15.754Z,-3.69
2017-05-03T00:59:15.741Z,-3.86
2017-05-03T01:00:16.042Z,-3.8
2017-05-03T01:01:15.703Z,-3.92
2017-05-03T01:02:15.993Z,-3.88
2017-05-03T01:03:16.001Z,-3.76
2017-05-03T01:04:15.954Z,-3.69
2017-05-03T01:05:15.634Z,-3.46
2017-05-03T01:06:15.618Z,-3.41
2017-05-03T01:07:15.598Z,-3.4
2017-05-03T01:08:15.881Z,-3.4
2017-05-03T01:09:15.873Z,-3.59
2017-05-03T01:10:15.846Z,-3.43
2017-05-03T01:11:15.524Z,-3.39
2017-05-03T01:12:15.507Z,-3.34
2017-05-03T01:13:15.793Z,-3.16
2017-05-03T01:14:15.479Z,-3.15
2017-05-03T01:15:15.450Z,-3.22
2017-05-03T01:16:15.131Z,-3.26
2017-05-03T01:17:15.117Z,-3.26
2017-05-03T01:18:15.703Z,-3.22
2017-05-03T01:19:15.387Z,-3.21
2017-05-03T01:20:15.661Z,-3.39
2017-05-03T01:21:15.355Z,-3.28
2017-05-03T01:22:15.629Z,-3.19
2017-05-03T01:23:15.614Z,-3.13
2017-05-03T01:24:15.591Z,-3.1
2017-05-03T01:25:15.579Z,-3.12
2017-05-03T01:26:15.561Z,-3.02
2017-05-03T01:27:15.239Z,-2.94
2017-05-03T01:28:14.916Z,-2.93
2017-05-03T01:29:14.898Z,-2.89
2017-05-03T01:30:15.185Z,-2.9
2017-05-03T01:31:15.464Z,-2.93
2017-05-03T01:32:14.848Z,-2.93
2017-05-03T01:33:15.429Z,-2.97
2017-05-03T01:34:15.419Z,-2.97
2017-05-03T01:35:15.399Z,-2.87
2017-05-03T01:36:15.379Z,-3.02
2017-05-03T01:37:15.365Z,-2.95
2017-05-03T01:38:15.046Z,-2.84
2017-05-03T01:39:15.329Z,-2.87
2017-05-03T01:40:15.004Z,-3.02
2017-05-03T01:41:15.291Z,-3.1
2017-05-03T01:42:15.278Z,-3.08
2017-05-03T01:43:15.258Z,-2.98
2017-05-03T01:44:15.243Z,-2.8
2017-05-03T01:45:14.965Z,-2.84
2017-05-03T01:46:14.909Z,-2.82
2017-05-03T01:47:14.586Z,-2.9
2017-05-03T01:48:15.175Z,-2.97
2017-05-03T01:49:15.158Z,-3.13
2017-05-03T01:50:15.143Z,-3.1
2017-05-03T01:51:15.120Z,-3.12
2017-05-03T01:52:15.107Z,-3.08
2017-05-03T01:53:15.089Z,-3.05
2017-05-03T01:54:15.069Z,-2.98
2017-05-03T01:55:14.751Z,-2.9
2017-05-03T01:56:14.439Z,-2.68
2017-05-03T01:57:14.722Z,-2.68
2017-05-03T01:58:14.704Z,-2.62
2017-05-03T01:59:14.990Z,-2.62
2017-05-03T02:00:14.970Z,-2.53
2017-05-03T02:01:14.652Z,-2.44
2017-05-03T02:02:14.636Z,-2.68
2017-05-03T02:03:14.923Z,-2.9
2017-05-03T02:04:14.910Z,-2.97
2017-05-03T02:05:14.587Z,-3.1
2017-05-03T02:06:14.872Z,-3.07
2017-05-03T02:07:14.859Z,-2.95
2017-05-03T02:08:14.847Z,-2.83
2017-05-03T02:09:14.822Z,-2.72
2017-05-03T02:10:14.502Z,-2.68
2017-05-03T02:11:14.490Z,-2.64
2017-05-03T02:12:14.170Z,-2.48
2017-05-03T02:13:14.459Z,-2.43
2017-05-03T02:14:14.451Z,-2.37
2017-05-03T02:15:14.728Z,-2.61
2017-05-03T02:16:14.107Z,-2.62
2017-05-03T02:17:14.696Z,-2.68
2017-05-03T02:18:14.686Z,-2.89
2017-05-03T02:19:14.671Z,-3.1
2017-05-03T02:20:14.347Z,-3.19
2017-05-03T02:21:14.327Z,-3.22
2017-05-03T02:22:14.620Z,-3.34
2017-05-03T02:23:14.601Z,-3.23
2017-05-03T02:24:14.279Z,-3.25
2017-05-03T02:25:14.569Z,-3.23
2017-05-03T02:26:14.550Z,-3.25
2017-05-03T02:27:14.232Z,-3.18
2017-05-03T02:28:13.911Z,-3.08
2017-05-03T02:29:14.198Z,-3.22
2017-05-03T02:30:14.482Z,-3.21
2017-05-03T02:31:14.165Z,-3.15
2017-05-03T02:32:14.147Z,-3.15
2017-05-03T02:33:14.127Z,-3.07
2017-05-03T02:34:14.414Z,-3.25
2017-05-03T02:35:14.095Z,-3.15
2017-05-03T02:36:14.382Z,-3.1
2017-05-03T02:37:14.371Z,-3.12
2017-05-03T02:38:14.348Z,-3.05
2017-05-03T02:39:14.331Z,-3
2017-05-03T02:40:14.315Z,-2.94
2017-05-03T02:41:14.024Z,-2.9
2017-05-03T02:42:13.680Z,-2.84
2017-05-03T02:43:13.963Z,-2.87
2017-05-03T02:44:14.251Z,-2.79
2017-05-03T02:45:13.629Z,-2.72
2017-05-03T02:46:14.223Z,-2.62
2017-05-03T02:47:13.921Z,-2.48
2017-05-03T02:48:14.182Z,-2.41
2017-05-03T02:49:14.171Z,-2.41
2017-05-03T02:50:13.846Z,-2.46
2017-05-03T02:51:14.129Z,-2.46
2017-05-03T02:52:14.116Z,-2.47
2017-05-03T02:53:14.101Z,-2.35
2017-05-03T02:54:13.788Z,-2.37
2017-05-03T02:55:13.767Z,-2.35
2017-05-03T02:56:14.049Z,-2.41
2017-05-03T02:57:14.032Z,-2.4
2017-05-03T02:58:13.719Z,-2.32
2017-05-03T02:59:14.000Z,-2.33
2017-05-03T03:00:13.986Z,-2.33
2017-05-03T03:01:13.972Z,-2.32
2017-05-03T03:02:13.954Z,-2.4
2017-05-03T03:03:13.637Z,-2.35
2017-05-03T03:04:13.620Z,-2.65
2017-05-03T03:05:13.603Z,-2.65
2017-05-03T03:06:13.583Z,-2.62
2017-05-03T03:07:13.873Z,-2.76
2017-05-03T03:08:13.558Z,-2.86
2017-05-03T03:09:13.841Z,-3.12
2017-05-03T03:10:13.519Z,-3.23
2017-05-03T03:11:13.505Z,-3.26
2017-05-03T03:12:13.491Z,-3.23
2017-05-03T03:13:13.774Z,-3.15
2017-05-03T03:14:13.457Z,-3.23
2017-05-03T03:15:13.737Z,-3.05
2017-05-03T03:16:13.721Z,-3.08
2017-05-03T03:17:13.456Z,-3.1
2017-05-03T03:18:13.388Z,-3.1
2017-05-03T03:19:13.669Z,-3.13
2017-05-03T03:20:13.353Z,-3.07
2017-05-03T03:21:13.637Z,-2.89
2017-05-03T03:22:13.614Z,-2.77
2017-05-03T03:23:13.599Z,-2.82
2017-05-03T03:24:13.587Z,-2.93
2017-05-03T03:25:13.261Z,-3.05
2017-05-03T03:26:13.542Z,-3.13
2017-05-03T03:27:13.227Z,-3.12
2017-05-03T03:28:13.511Z,-3.16
2017-05-03T03:29:13.494Z,-3.12
2017-05-03T03:30:13.470Z,-3.15
2017-05-03T03:31:13.457Z,-3.1
2017-05-03T03:32:13.139Z,-2.95
2017-05-03T03:33:13.425Z,-2.95
2017-05-03T03:34:13.409Z,-2.97
2017-05-03T03:35:13.385Z,-2.97
2017-05-03T03:36:13.065Z,-3.1
2017-05-03T03:37:13.354Z,-3.19
2017-05-03T03:38:13.341Z,-3.19
2017-05-03T03:39:13.316Z,-3.28
2017-05-03T03:40:13.299Z,-3.19
2017-05-03T03:41:13.281Z,-3.22
2017-05-03T03:42:13.273Z,-3.16
2017-05-03T03:43:13.246Z,-3.13
2017-05-03T03:44:13.231Z,-2.95
2017-05-03T03:45:13.206Z,-2.94
2017-05-03T03:46:12.890Z,-2.9
2017-05-03T03:47:13.178Z,-2.89
2017-05-03T03:48:12.888Z,-2.9
2017-05-03T03:49:13.144Z,-2.94
2017-05-03T03:50:13.122Z,-2.82
2017-05-03T03:51:13.105Z,-2.8
2017-05-03T03:52:12.486Z,-2.72
2017-05-03T03:53:12.771Z,-2.76
2017-05-03T03:54:12.450Z,-2.93
2017-05-03T03:55:13.037Z,-2.8
2017-05-03T03:56:13.025Z,-2.79
2017-05-03T03:57:12.705Z,-2.97
2017-05-03T03:58:12.685Z,-3.01
2017-05-03T03:59:12.967Z,-3
2017-05-03T04:00:12.955Z,-2.79
2017-05-03T04:01:12.931Z,-2.82
2017-05-03T04:02:12.622Z,-2.87
2017-05-03T04:03:12.600Z,-2.69
2017-05-03T04:04:12.586Z,-2.61
2017-05-03T04:05:12.866Z,-2.72
2017-05-03T04:06:12.849Z,-2.83
2017-05-03T04:07:12.827Z,-2.77
2017-05-03T04:08:12.212Z,-2.72
2017-05-03T04:09:12.494Z,-2.74
2017-05-03T04:10:12.779Z,-2.65
2017-05-03T04:11:12.759Z,-2.74
2017-05-03T04:12:12.742Z,-2.74
2017-05-03T04:13:12.724Z,-2.69
2017-05-03T04:14:12.720Z,-2.84
2017-05-03T04:15:12.694Z,-2.76
2017-05-03T04:16:12.674Z,-2.72
2017-05-03T04:17:12.657Z,-2.76
2017-05-03T04:18:12.644Z,-2.82
2017-05-03T04:19:12.623Z,-2.87
2017-05-03T04:20:12.605Z,-2.66
2017-05-03T04:21:11.982Z,-2.69
2017-05-03T04:22:12.569Z,-2.76
2017-05-03T04:23:12.247Z,-2.79
2017-05-03T04:24:12.241Z,-2.68
2017-05-03T04:25:12.517Z,-2.72
2017-05-03T04:26:12.500Z,-2.64
2017-05-03T04:27:12.483Z,-2.56
2017-05-03T04:28:12.164Z,-2.64
2017-05-03T04:29:12.447Z,-2.51
2017-05-03T04:30:12.130Z,-2.56
2017-05-03T04:31:11.809Z,-2.5
2017-05-03T04:32:12.097Z,-2.41
2017-05-03T04:33:12.078Z,-2.33
2017-05-03T04:34:12.364Z,-2.38
2017-05-03T04:35:12.046Z,-2.33
2017-05-03T04:36:12.028Z,-2.44
2017-05-03T04:37:12.315Z,-2.46
2017-05-03T04:38:11.995Z,-2.43
2017-05-03T04:39:11.974Z,-2.46
2017-05-03T04:40:11.959Z,-2.46
2017-05-03T04:41:12.246Z,-2.32
2017-05-03T04:42:12.223Z,-2.33
2017-05-03T04:43:11.910Z,-2.47
2017-05-03T04:44:12.197Z,-2.44
2017-05-03T04:45:12.176Z,-2.48
2017-05-03T04:46:11.861Z,-2.61
2017-05-03T04:47:12.140Z,-2.68
2017-05-03T04:48:12.125Z,-2.62
2017-05-03T04:49:11.808Z,-2.61
2017-05-03T04:50:11.787Z,-2.51
2017-05-03T04:51:11.773Z,-2.38
2017-05-03T04:52:12.058Z,-2.46
2017-05-03T04:53:12.041Z,-2.38
2017-05-03T04:54:11.723Z,-2.32
2017-05-03T04:55:12.007Z,-2.24
2017-05-03T04:56:11.988Z,-2.35
2017-05-03T04:57:11.975Z,-2.25
2017-05-03T04:58:11.961Z,-2.29
2017-05-03T04:59:11.945Z,-2.33
2017-05-03T05:00:11.923Z,-2.35
2017-05-03T05:01:11.906Z,-2.19
2017-05-03T05:02:11.590Z,-2.25
2017-05-03T05:03:11.872Z,-2.33
2017-05-03T05:04:11.855Z,-2.29
2017-05-03T05:05:11.835Z,-2.29
2017-05-03T05:06:11.819Z,-2.43
2017-05-03T05:07:11.801Z,-2.33
2017-05-03T05:08:11.787Z,-2.35
2017-05-03T05:09:11.813Z,-2.37
2017-05-03T05:10:11.751Z,-2.25
2017-05-03T05:11:11.737Z,-2.1
2017-05-03T05:12:11.714Z,-2.07
2017-05-03T05:13:11.698Z,-2.08
2017-05-03T05:14:11.690Z,-2.14
2017-05-03T05:15:11.666Z,-2.07
2017-05-03T05:16:11.652Z,-2.07
2017-05-03T05:17:11.635Z,-2.04
2017-05-03T05:18:11.618Z,-2.18
2017-05-03T05:19:11.601Z,-2.25
2017-05-03T05:20:11.581Z,-2.04
2017-05-03T05:21:11.274Z,-1.92
2017-05-03T05:22:11.546Z,-1.83
2017-05-03T05:23:11.529Z,-1.78
2017-05-03T05:24:11.514Z,-1.77
2017-05-03T05:25:11.493Z,-1.83
2017-05-03T05:26:11.483Z,-1.86
2017-05-03T05:27:11.464Z,-1.78
2017-05-03T05:28:11.445Z,-2.24
2017-05-03T05:29:11.430Z,-2.29
2017-05-03T05:30:11.111Z,-2.37
2017-05-03T05:31:11.395Z,-2.35
2017-05-03T05:32:11.380Z,-2.32
2017-05-03T05:33:11.362Z,-2.33
2017-05-03T05:34:11.041Z,-2.24
2017-05-03T05:35:11.332Z,-2.07
2017-05-03T05:36:11.310Z,-2.03
2017-05-03T05:37:11.294Z,-2.1
2017-05-03T05:38:11.279Z,-2.25
2017-05-03T05:39:11.268Z,-2.25
2017-05-03T05:40:11.249Z,-2.22
2017-05-03T05:41:11.230Z,-2.32
2017-05-03T05:42:11.212Z,-2.19
2017-05-03T05:43:11.196Z,-2.08
2017-05-03T05:44:11.177Z,-2.03
2017-05-03T05:45:11.161Z,-2.07
2017-05-03T05:46:11.142Z,-1.96
2017-05-03T05:47:11.127Z,-1.8
2017-05-03T05:48:11.113Z,-1.64
2017-05-03T05:49:11.101Z,-1.8
2017-05-03T05:50:10.776Z,-1.96
2017-05-03T05:51:11.060Z,-2.06
2017-05-03T05:52:10.742Z,-2.41
2017-05-03T05:53:11.060Z,-2.47
2017-05-03T05:54:11.013Z,-2.4
2017-05-03T05:55:10.990Z,-2.11
2017-05-03T05:56:10.974Z,-2
2017-05-03T05:57:10.663Z,-2.11
2017-05-03T05:58:10.338Z,-1.83
2017-05-03T05:59:10.927Z,-1.71
2017-05-03T06:00:10.307Z,-1.64
2017-05-03T06:01:10.892Z,-1.62
2017-05-03T06:02:10.274Z,-1.59
2017-05-03T06:03:10.859Z,-1.77
2017-05-03T06:04:10.846Z,-1.82
2017-05-03T06:05:10.823Z,-1.74
2017-05-03T06:06:10.509Z,-1.61
2017-05-03T06:07:10.490Z,-1.71
2017-05-03T06:08:10.774Z,-1.68
2017-05-03T06:09:10.761Z,-1.8
2017-05-03T06:10:10.447Z,-1.71
2017-05-03T06:11:10.727Z,-1.65
2017-05-03T06:12:10.410Z,-1.68
2017-05-03T06:13:10.704Z,-1.53
2017-05-03T06:14:10.380Z,-1.38
2017-05-03T06:15:10.660Z,-1.57
2017-05-03T06:16:10.646Z,-1.56
2017-05-03T06:17:10.632Z,-1.41
2017-05-03T06:18:10.315Z,-1.41
2017-05-03T06:19:10.596Z,-1.51
2017-05-03T06:20:10.280Z,-1.62
2017-05-03T06:21:10.264Z,-1.93
2017-05-03T06:22:10.245Z,-2.07
2017-05-03T06:23:10.232Z,-1.95
2017-05-03T06:24:10.213Z,-1.86
2017-05-03T06:25:10.191Z,-1.77
2017-05-03T06:26:10.178Z,-1.67
2017-05-03T06:27:10.461Z,-1.56
2017-05-03T06:28:10.469Z,-1.49
2017-05-03T06:29:10.428Z,-1.38
2017-05-03T06:30:10.108Z,-1.32
2017-05-03T06:31:10.393Z,-1.31
2017-05-03T06:32:10.378Z,-1.33
2017-05-03T06:33:10.353Z,-1.33
2017-05-03T06:34:10.041Z,-1.41
2017-05-03T06:35:10.322Z,-1.51
2017-05-03T06:36:10.309Z,-1.64
2017-05-03T06:37:09.986Z,-1.62
2017-05-03T06:38:10.269Z,-1.77
2017-05-03T06:39:10.255Z,-1.95
2017-05-03T06:40:09.633Z,-2
2017-05-03T06:41:10.218Z,-2.06
2017-05-03T06:42:10.200Z,-1.92
2017-05-03T06:43:09.881Z,-1.77
2017-05-03T06:44:10.166Z,-1.9
2017-05-03T06:45:09.850Z,-1.92
2017-05-03T06:46:09.832Z,-1.8
2017-05-03T06:47:09.811Z,-1.78
2017-05-03T06:48:09.796Z,-1.65
2017-05-03T06:49:09.784Z,-1.78
2017-05-03T06:50:09.760Z,-1.86
2017-05-03T06:51:10.042Z,-1.8
2017-05-03T06:52:10.021Z,-1.9
2017-05-03T06:53:10.011Z,-1.95
2017-05-03T06:54:09.724Z,-2.04
2017-05-03T06:55:09.968Z,-2.03
2017-05-03T06:56:09.651Z,-1.92
2017-05-03T06:57:09.938Z,-1.92
2017-05-03T06:58:09.925Z,-1.95
2017-05-03T06:59:09.895Z,-2.07
2017-05-03T07:00:09.583Z,-2.21
2017-05-03T07:01:09.863Z,-2.11
2017-05-03T07:02:09.545Z,-2
2017-05-03T07:03:09.831Z,-1.93
2017-05-03T07:04:09.817Z,-1.89
2017-05-03T07:05:09.489Z,-1.78
2017-05-03T07:06:09.774Z,-1.77
2017-05-03T07:07:09.760Z,-1.8
2017-05-03T07:08:09.744Z,-1.7
2017-05-03T07:09:09.724Z,-1.9
2017-05-03T07:10:09.402Z,-1.98
2017-05-03T07:11:09.687Z,-1.9
2017-05-03T07:12:09.666Z,-1.9
2017-05-03T07:13:09.651Z,-1.77
2017-05-03T07:14:09.632Z,-1.71
2017-05-03T07:15:09.315Z,-1.68
2017-05-03T07:16:09.600Z,-1.5
2017-05-03T07:17:09.578Z,-1.56
2017-05-03T07:18:09.263Z,-1.46
2017-05-03T07:19:09.550Z,-1.57
2017-05-03T07:20:09.526Z,-1.38
2017-05-03T07:21:09.517Z,-1.29
2017-05-03T07:22:09.189Z,-1.15
2017-05-03T07:23:09.183Z,-1.1
2017-05-03T07:24:09.463Z,-1.18
2017-05-03T07:25:09.441Z,-1.35
2017-05-03T07:26:09.121Z,-1.38
2017-05-03T07:27:09.411Z,-1.38
2017-05-03T07:28:09.393Z,-1.11
2017-05-03T07:29:09.378Z,-0.95
2017-05-03T07:30:09.056Z,-0.89
2017-05-03T07:31:09.079Z,-0.81
2017-05-03T07:32:09.329Z,-0.63
2017-05-03T07:33:09.308Z,-0.49
2017-05-03T07:34:08.989Z,-0.39
2017-05-03T07:35:09.277Z,-0.17
2017-05-03T07:36:09.253Z,0.12
2017-05-03T07:37:09.242Z,0.26
2017-05-03T07:38:09.223Z,0.16
2017-05-03T07:39:09.210Z,-0.14
2017-05-03T07:40:09.192Z,-0.41
2017-05-03T07:41:09.181Z,-0.3
2017-05-03T07:42:08.857Z,-0.37
2017-05-03T07:43:09.143Z,-0.45
2017-05-03T07:44:09.129Z,-0.17
2017-05-03T07:45:09.114Z,0.08
2017-05-03T07:46:08.793Z,0.34
2017-05-03T07:47:09.083Z,0.64
2017-05-03T07:48:09.099Z,1.16
2017-05-03T07:49:09.047Z,1.18
2017-05-03T07:50:08.730Z,1.21
2017-05-03T07:51:09.014Z,1.29
2017-05-03T07:52:09.004Z,1.25
2017-05-03T07:53:08.984Z,1.29
2017-05-03T07:54:08.973Z,1.25
2017-05-03T07:55:08.959Z,1.21
2017-05-03T07:56:08.953Z,1.21
2017-05-03T07:57:08.927Z,1.31
2017-05-03T07:58:08.915Z,1.31
2017-05-03T07:59:08.898Z,1.26
2017-05-03T08:00:08.886Z,1.28
2017-05-03T08:01:08.872Z,1.26
2017-05-03T08:02:08.860Z,1.28
2017-05-03T08:03:08.895Z,1.32
2017-05-03T08:04:08.828Z,1.32
2017-05-03T08:05:08.822Z,1.39
2017-05-03T08:06:08.807Z,1.38
2017-05-03T08:07:08.798Z,1.32
2017-05-03T08:08:08.780Z,1.39
2017-05-03T08:09:08.772Z,1.29
2017-05-03T08:10:08.754Z,1.31
2017-05-03T08:11:08.739Z,1.28
2017-05-03T08:12:08.736Z,1.28
2017-05-03T08:13:08.718Z,1.29
2017-05-03T08:14:08.748Z,1.34
2017-05-03T08:15:08.688Z,1.32
2017-05-03T08:16:08.677Z,1.31
2017-05-03T08:17:08.661Z,1.32
2017-05-03T08:18:08.653Z,1.28
2017-05-03T08:19:08.636Z,1.28
2017-05-03T08:20:08.623Z,1.32
2017-05-03T08:21:08.615Z,1.32
2017-05-03T08:22:08.302Z,1.32
2017-05-03T08:23:08.592Z,1.34
2017-05-03T08:24:08.274Z,1.34
2017-05-03T08:25:08.564Z,1.42
2017-05-03T08:26:08.553Z,1.34
2017-05-03T08:27:08.238Z,1.34
2017-05-03T08:28:08.527Z,1.28
2017-05-03T08:29:08.519Z,1.28
2017-05-03T08:30:08.209Z,1.28
2017-05-03T08:31:08.190Z,1.2
2017-05-03T08:32:08.489Z,1.24
2017-05-03T08:33:08.473Z,1.28
2017-05-03T08:34:08.462Z,1.26
2017-05-03T08:35:08.452Z,1.26
2017-05-03T08:36:08.443Z,1.28
2017-05-03T08:37:08.433Z,1.32
2017-05-03T08:38:08.414Z,1.34
2017-05-03T08:39:08.421Z,1.29
2017-05-03T08:40:08.401Z,1.28
2017-05-03T08:41:08.385Z,1.34
2017-05-03T08:42:07.766Z,1.29
2017-05-03T08:43:08.362Z,1.39
2017-05-03T08:44:08.350Z,1.38
2017-05-03T08:45:08.344Z,1.43
2017-05-03T08:46:08.030Z,1.43
2017-05-03T08:47:08.014Z,1.64
2017-05-03T08:48:08.306Z,1.65
2017-05-03T08:49:08.294Z,1.64
2017-05-03T08:50:07.679Z,1.46
2017-05-03T08:51:08.268Z,1.36
2017-05-03T08:52:08.256Z,1.57
2017-05-03T08:53:08.246Z,1.83
2017-05-03T08:54:08.234Z,2.12
2017-05-03T08:55:08.220Z,2.51
2017-05-03T08:56:07.902Z,2.56
2017-05-03T08:57:08.189Z,2.87
2017-05-03T08:58:07.878Z,3.23
2017-05-03T08:59:07.867Z,3.16
2017-05-03T09:00:07.887Z,3.25
2017-05-03T09:01:07.834Z,3.42
2017-05-03T09:02:08.132Z,3.53
2017-05-03T09:03:07.813Z,3.86
2017-05-03T09:04:07.799Z,3.82
2017-05-03T09:05:07.488Z,3.89
2017-05-03T09:06:07.772Z,3.8
2017-05-03T09:07:07.758Z,2.95
2017-05-03T09:08:08.052Z,2.56
2017-05-03T09:09:08.038Z,0.92
2017-05-03T09:10:08.025Z,0.45
2017-05-03T09:11:08.011Z,0.52
2017-05-03T09:12:07.697Z,1.1
2017-05-03T09:13:07.986Z,1.71
2017-05-03T09:14:07.973Z,2.22
2017-05-03T09:15:07.659Z,2.47
2017-05-03T09:16:07.952Z,2.45
2017-05-03T09:17:07.936Z,1.82
2017-05-03T09:18:07.927Z,1.13
2017-05-03T09:19:07.911Z,1.6
2017-05-03T09:20:07.903Z,2
2017-05-03T09:21:07.888Z,2.27
2017-05-03T09:22:07.873Z,1.61
2017-05-03T09:23:07.861Z,1.26
2017-05-03T09:24:07.843Z,1.29
2017-05-03T09:25:07.838Z,1.5
2017-05-03T09:26:07.823Z,2.23
2017-05-03T09:27:07.506Z,2.84
2017-05-03T09:28:07.803Z,2.07
2017-05-03T09:29:07.790Z,1.7
2017-05-03T09:30:07.470Z,1.16
2017-05-03T09:31:07.757Z,1.31
2017-05-03T09:32:07.746Z,1.7
2017-05-03T09:33:07.735Z,2.05
2017-05-03T09:34:07.419Z,2.58
2017-05-03T09:35:07.709Z,2.76
2017-05-03T09:36:07.695Z,3.23
2017-05-03T09:37:07.681Z,2.68
2017-05-03T09:38:07.667Z,2.3
2017-05-03T09:39:07.654Z,2.02
2017-05-03T09:40:07.640Z,0.96
2017-05-03T09:41:07.631Z,1.11
2017-05-03T09:42:07.623Z,1.6
2017-05-03T09:43:07.606Z,0.96
2017-05-03T09:44:07.595Z,0.75
2017-05-03T09:45:07.778Z,1.65
2017-05-03T09:46:07.595Z,2.59
2017-05-03T09:47:07.553Z,3.01
2017-05-03T09:48:07.538Z,2.94
2017-05-03T09:49:07.530Z,2.79
2017-05-03T09:50:07.518Z,3.01
2017-05-03T09:51:07.505Z,3.2
2017-05-03T09:52:07.489Z,3.81
2017-05-03T09:53:07.475Z,3.23
2017-05-03T09:54:07.470Z,2.98
2017-05-03T09:55:07.453Z,2.98
2017-05-03T09:56:07.440Z,2.48
2017-05-03T09:57:07.427Z,3.25
2017-05-03T09:58:07.423Z,4.18
2017-05-03T09:59:07.402Z,4.59
2017-05-03T10:00:07.092Z,4.8
2017-05-03T10:01:07.383Z,4.28
2017-05-03T10:02:07.068Z,3.98
2017-05-03T10:03:07.359Z,4.18
2017-05-03T10:04:07.047Z,4.87
2017-05-03T10:05:07.337Z,5.41
2017-05-03T10:06:07.331Z,5.8
2017-05-03T10:07:07.317Z,6.14
2017-05-03T10:08:07.006Z,4.97
2017-05-03T10:09:07.300Z,4.36
2017-05-03T10:10:07.284Z,3.01
2017-05-03T10:11:07.476Z,2.55
2017-05-03T10:12:07.472Z,2.9
2017-05-03T10:13:07.254Z,3.92
2017-05-03T10:14:07.247Z,4.49
2017-05-03T10:15:07.231Z,5.09
2017-05-03T10:16:07.223Z,4.9
2017-05-03T10:17:07.218Z,5.05
2017-05-03T10:18:07.202Z,5.06
2017-05-03T10:19:07.200Z,4.77
2017-05-03T10:20:07.184Z,3.52
2017-05-03T10:21:07.195Z,2.04
2017-05-03T10:22:07.166Z,1.64
2017-05-03T10:23:07.154Z,1.24
2017-05-03T10:24:06.842Z,0.34
2017-05-03T10:25:07.137Z,0.1
2017-05-03T10:26:07.111Z,0.62
2017-05-03T10:27:07.105Z,1.18
2017-05-03T10:28:07.095Z,2.01
2017-05-03T10:29:07.084Z,2.44
2017-05-03T10:30:06.764Z,2.76
2017-05-03T10:31:06.756Z,2.74
2017-05-03T10:32:07.052Z,2.89
2017-05-03T10:33:06.730Z,3.46
2017-05-03T10:34:07.019Z,3.67
2017-05-03T10:35:07.012Z,6.55
2017-05-03T10:36:06.997Z,5.49
2017-05-03T10:37:06.982Z,4.62
2017-05-03T10:38:06.977Z,4.08
2017-05-03T10:39:06.960Z,3.56
2017-05-03T10:40:06.948Z,3.74
2017-05-03T10:41:06.940Z,3.8
2017-05-03T10:42:20.321Z,3.98
2017-05-03T10:43:06.924Z,2.87
2017-05-03T10:44:06.903Z,2.98
2017-05-03T10:45:07.302Z,3.01
2017-05-03T10:46:06.883Z,3.04
2017-05-03T10:47:07.082Z,2.92
2017-05-03T10:48:06.861Z,2.55
2017-05-03T10:49:06.848Z,1.61
2017-05-03T10:50:06.873Z,1.61
2017-05-03T10:51:07.028Z,1.63
2017-05-03T10:52:06.813Z,1.98
2017-05-03T10:53:06.804Z,3.86
2017-05-03T10:54:06.791Z,3.04
2017-05-03T10:55:06.784Z,2.79
2017-05-03T10:56:06.766Z,2.76
2017-05-03T10:57:06.757Z,2.83
2017-05-03T10:58:06.746Z,2.94
2017-05-03T10:59:06.732Z,3.22
2017-05-03T11:00:06.720Z,3.67
2017-05-03T11:01:06.704Z,3.6
2017-05-03T11:02:06.720Z,5.52
2017-05-03T11:03:06.689Z,4.29
2017-05-03T11:04:06.680Z,4.1
2017-05-03T11:05:06.661Z,4.08
2017-05-03T11:06:06.350Z,4.57
2017-05-03T11:07:06.638Z,5.04
2017-05-03T11:08:06.629Z,4.91
2017-05-03T11:09:06.619Z,4.21
2017-05-03T11:10:06.303Z,3.42
2017-05-03T11:11:06.594Z,3.13
2017-05-03T11:12:06.285Z,2.99
2017-05-03T11:13:06.574Z,3.01
2017-05-03T11:14:06.563Z,3.08
2017-05-03T11:15:06.552Z,2.94
2017-05-03T11:16:06.545Z,3.2
2017-05-03T11:17:06.772Z,3.23
2017-05-03T11:18:06.522Z,3.35
2017-05-03T11:19:06.515Z,2.5
2017-05-03T11:20:06.501Z,1.67
2017-05-03T11:21:06.491Z,1.43
2017-05-03T11:22:06.696Z,1.2
2017-05-03T11:23:06.475Z,1.65
2017-05-03T11:24:06.458Z,2.14
2017-05-03T11:25:06.444Z,2.07
2017-05-03T11:26:06.440Z,2.01
2017-05-03T11:27:06.629Z,1.9
2017-05-03T11:28:06.413Z,1.74
2017-05-03T11:29:06.397Z,1.92
2017-05-03T11:30:06.390Z,1.17
2017-05-03T11:31:06.376Z,0.57
2017-05-03T11:32:06.061Z,0.37
2017-05-03T11:33:06.048Z,0.74
2017-05-03T11:34:06.340Z,1.17
2017-05-03T11:35:06.330Z,1.7
2017-05-03T11:36:06.317Z,1.92
2017-05-03T11:37:06.304Z,1.81
2017-05-03T11:38:06.288Z,1.14
2017-05-03T11:39:06.282Z,1.18
2017-05-03T11:40:06.272Z,1.46
2017-05-03T11:41:06.256Z,2.08
2017-05-03T11:42:06.244Z,2.18
2017-05-03T11:43:05.931Z,2.45
2017-05-03T11:44:06.218Z,2.8
2017-05-03T11:45:06.209Z,3.15
2017-05-03T11:46:06.192Z,3.8
2017-05-03T11:47:06.183Z,4.07
2017-05-03T11:48:06.174Z,4.17
2017-05-03T11:49:06.165Z,4.2
2017-05-03T11:50:06.154Z,4.13
2017-05-03T11:51:05.846Z,4.17
2017-05-03T11:52:06.330Z,3.82
2017-05-03T11:53:06.121Z,3.39
2017-05-03T11:54:06.106Z,3.34
2017-05-03T11:55:06.103Z,3.3
2017-05-03T11:56:06.087Z,3.34
2017-05-03T11:57:20.694Z,3.44
2017-05-03T11:58:06.277Z,2.95
2017-05-03T11:59:06.056Z,2.18
2017-05-03T12:00:05.752Z,2.3
2017-05-03T12:01:06.036Z,2.65
2017-05-03T12:02:06.023Z,3.15
2017-05-03T12:03:06.011Z,3.7
2017-05-03T12:04:06.005Z,3.67
2017-05-03T12:05:05.996Z,3.93
2017-05-03T12:06:05.681Z,3.52
2017-05-03T12:07:05.974Z,3.68
2017-05-03T12:08:05.963Z,3.74
2017-05-03T12:09:05.950Z,3.67
2017-05-03T12:10:05.945Z,4.06
2017-05-03T12:11:05.932Z,4.54
2017-05-03T12:12:05.625Z,4.96
2017-05-03T12:13:05.915Z,5.09
2017-05-03T12:14:05.908Z,5.3
2017-05-03T12:15:05.597Z,5.37
2017-05-03T12:16:05.890Z,5.38
2017-05-03T12:17:05.876Z,4.97
2017-05-03T12:18:05.867Z,4.96
2017-05-03T12:19:05.858Z,5.17
2017-05-03T12:20:05.556Z,5.33
2017-05-03T12:21:05.237Z,5.4
2017-05-03T12:22:05.833Z,4.97
2017-05-03T12:23:05.824Z,4.99
2017-05-03T12:24:05.817Z,4.64
2017-05-03T12:25:05.509Z,4.35
2017-05-03T12:26:05.794Z,4.25
2017-05-03T12:27:05.789Z,3.92
2017-05-03T12:28:05.778Z,3.82
2017-05-03T12:29:05.768Z,3.86
2017-05-03T12:30:05.758Z,3.7
2017-05-03T12:31:05.747Z,3.77
2017-05-03T12:32:05.739Z,3.52
2017-05-03T12:33:05.730Z,3.26
2017-05-03T12:34:05.420Z,2.97
2017-05-03T12:35:05.408Z,2.76
2017-05-03T12:36:05.701Z,2.65
2017-05-03T12:37:05.693Z,2.14
2017-05-03T12:38:05.682Z,1.85
2017-05-03T12:39:05.682Z,1.29
2017-05-03T12:40:05.356Z,1.16
2017-05-03T12:41:05.652Z,1.26
2017-05-03T12:42:05.644Z,1.25
2017-05-03T12:43:05.327Z,1.31
2017-05-03T12:44:05.612Z,1.25
2017-05-03T12:45:05.604Z,1.31
2017-05-03T12:46:05.300Z,1.31
2017-05-03T12:47:05.580Z,1.25
2017-05-03T12:48:05.568Z,1.29
2017-05-03T12:49:05.255Z,1.25
2017-05-03T12:50:05.542Z,1.21
2017-05-03T12:51:05.532Z,1.25
2017-05-03T12:52:05.514Z,1.18
2017-05-03T12:53:05.506Z,1.25
2017-05-03T12:54:05.486Z,1.25
2017-05-03T12:55:05.476Z,1.29
2017-05-03T12:56:05.455Z,1.28
2017-05-03T12:57:05.143Z,1.25
2017-05-03T12:58:05.429Z,1.2
2017-05-03T12:59:05.415Z,1.25
2017-05-03T13:00:05.397Z,1.28
2017-05-03T13:01:05.384Z,1.25
2017-05-03T13:02:05.365Z,1.17
2017-05-03T13:03:05.352Z,1.24
2017-05-03T13:04:05.337Z,1.28
2017-05-03T13:05:05.014Z,1.21
2017-05-03T13:06:05.301Z,1.2